Disclaimer

Please do not use the information listed here in-flight or in-navigation, as they are not provided to us by the airports but are provided by volunteers, so they might be outdated.

Search


Regions


Airport information page

Radio informations:
Tower (TWR) - 119.2 MHz
Approach (APP) - 119.2 MHz

Airport informations:
Latitude: 46° 28' 47.50" N
Longitude: 015° 41' 10.07" E
Elevation: 876 feet - 267 meters
Operating hours: Remarks
Operating agency: Civil government, landing fees and diplomatic clearance may be required
Timezone: UTC+1(+2DT) - Last Sunday in March to last Sunday in October
Fuel: Jet A, without icing inhibitor.

Runway information:
15/33 - 8202 x 148 feet< - >2500 x 45 meters
15L/33R - 3937 x 197 feet< - >1200 x 60 meters

Recent METARs:
LJMB 192100Z 36007KT 2000 -SN BR OVC003 01/00 Q1016
LJMB 192130Z AUTO 36006KT 1800 -SHRA BR OVC002/// 01/01 Q1015
LJMB 192200Z AUTO 36008KT 2500 BR OVC003/// 01/01 Q1015

Airport on the map: